createdAt,value
2023-03-17T00:00:45.086Z,5.28
2023-03-17T00:03:42.118Z,5.72
2023-03-17T00:06:28.617Z,4.80
2023-03-17T00:08:57.573Z,5.43
2023-03-17T00:11:26.643Z,5.65
2023-03-17T00:13:54.262Z,5.28
2023-03-17T00:16:27.307Z,5.25
2023-03-17T00:18:55.647Z,5.30
2023-03-17T00:21:29.272Z,5.70
2023-03-17T00:23:57.238Z,4.75
2023-03-17T00:26:25.173Z,4.78
2023-03-17T00:28:54.527Z,4.78
2023-03-17T00:31:25.328Z,4.28
2023-03-17T00:33:55.099Z,4.88
2023-03-17T00:36:24.271Z,5.25
2023-03-17T00:38:52.810Z,5.22
2023-03-17T00:41:20.399Z,6.22
2023-03-17T00:43:47.341Z,5.43
2023-03-17T00:46:36.263Z,6.68
2023-03-17T00:49:10.947Z,5.78
2023-03-17T00:54:08.115Z,5.95
2023-03-17T00:56:35.328Z,5.75
2023-03-17T00:59:05.752Z,6.00
2023-03-17T01:01:32.723Z,6.85
2023-03-17T01:03:59.997Z,6.32
2023-03-17T01:06:26.948Z,6.10
2023-03-17T01:08:55.999Z,6.38
2023-03-17T01:11:24.709Z,7.20
2023-03-17T01:13:51.679Z,7.07
2023-03-17T01:16:18.703Z,6.68
2023-03-17T01:18:45.821Z,5.82
2023-03-17T01:21:12.892Z,6.00
2023-03-17T01:23:39.842Z,6.18
2023-03-17T01:26:06.938Z,5.57
2023-03-17T01:28:34.669Z,5.10
2023-03-17T01:31:02.949Z,6.07
2023-03-17T01:33:30.092Z,5.70
2023-03-17T01:35:57.645Z,5.32
2023-03-17T01:38:24.836Z,6.40
2023-03-17T01:40:53.561Z,5.25
2023-03-17T01:43:29.638Z,5.28
2023-03-17T01:46:32.753Z,5.43
2023-03-17T01:49:12.812Z,5.25
2023-03-17T01:51:46.562Z,4.28
2023-03-17T01:54:23.325Z,4.60
2023-03-17T01:56:52.589Z,4.50
2023-03-17T01:59:25.538Z,4.68
2023-03-17T02:02:01.614Z,5.43
2023-03-17T02:04:29.731Z,4.72
2023-03-17T02:06:58.872Z,5.72
2023-03-17T02:09:28.274Z,4.78
2023-03-17T02:11:56.989Z,6.00
2023-03-17T02:14:24.474Z,5.18
2023-03-17T02:16:51.572Z,4.80
2023-03-17T02:19:18.764Z,5.18
2023-03-17T02:21:55.684Z,4.63
2023-03-17T02:24:30.090Z,5.07
2023-03-17T02:27:03.677Z,5.38
2023-03-17T02:29:35.127Z,4.63
2023-03-17T02:32:02.980Z,4.60
2023-03-17T02:34:31.608Z,5.38
2023-03-17T02:36:59.294Z,4.65
2023-03-17T02:39:26.836Z,5.00
2023-03-17T02:41:53.845Z,4.93
2023-03-17T02:44:21.159Z,4.07
2023-03-17T02:46:48.117Z,3.63
2023-03-17T02:49:16.001Z,4.20
2023-03-17T02:51:43.353Z,3.75
2023-03-17T02:54:10.406Z,3.70
2023-03-17T02:56:37.987Z,3.58
2023-03-17T02:59:05.201Z,3.80
2023-03-17T03:01:32.345Z,3.90
2023-03-17T03:03:59.529Z,3.53
2023-03-17T03:06:26.499Z,3.67
2023-03-17T03:08:53.526Z,3.30
2023-03-17T03:11:20.557Z,3.28
2023-03-17T03:13:47.561Z,2.95
2023-03-17T03:16:15.139Z,2.95
2023-03-17T03:18:42.248Z,3.10
2023-03-17T03:21:09.791Z,3.35
2023-03-17T03:23:36.865Z,3.80
2023-03-17T03:26:03.933Z,3.35
2023-03-17T03:28:31.293Z,3.28
2023-03-17T03:30:58.268Z,2.90
2023-03-17T03:33:25.289Z,3.20
2023-03-17T03:35:52.877Z,3.50
2023-03-17T03:38:19.887Z,3.40
2023-03-17T03:40:46.999Z,3.40
2023-03-17T03:43:22.967Z,3.10
2023-03-17T03:45:51.404Z,3.40
2023-03-17T03:48:19.225Z,3.00
2023-03-17T03:50:46.296Z,3.40
2023-03-17T03:53:13.775Z,3.60
2023-03-17T03:55:41.847Z,3.90
2023-03-17T03:58:08.996Z,3.58
2023-03-17T04:00:36.031Z,3.80
2023-03-17T04:03:03.204Z,2.92
2023-03-17T04:05:30.327Z,3.10
2023-03-17T04:07:57.307Z,3.13
2023-03-17T04:10:24.266Z,3.30
2023-03-17T04:12:51.265Z,2.70
2023-03-17T04:15:19.978Z,2.45
2023-03-17T04:17:47.657Z,2.40
2023-03-17T04:20:16.109Z,2.50
2023-03-17T04:22:43.876Z,2.22
2023-03-17T04:25:13.649Z,2.58
2023-03-17T04:27:42.445Z,2.40
2023-03-17T04:30:13.879Z,2.25
2023-03-17T04:32:41.992Z,2.50
2023-03-17T04:35:14.664Z,2.05
2023-03-17T04:37:42.119Z,2.28
2023-03-17T04:40:11.052Z,2.40
2023-03-17T04:42:38.488Z,2.20
2023-03-17T04:45:07.226Z,2.72
2023-03-17T04:47:34.327Z,2.25
2023-03-17T04:50:01.667Z,3.13
2023-03-17T04:52:28.807Z,2.65
2023-03-17T04:54:56.061Z,2.47
2023-03-17T04:57:24.600Z,4.40
2023-03-17T04:59:51.829Z,3.67
2023-03-17T05:02:19.070Z,3.30
2023-03-17T05:04:46.721Z,4.30
2023-03-17T05:07:14.158Z,4.40
2023-03-17T05:09:42.035Z,5.35
2023-03-17T05:12:10.091Z,3.92
2023-03-17T05:14:37.724Z,4.15
2023-03-17T05:17:04.777Z,3.83
2023-03-17T05:19:31.825Z,4.25
2023-03-17T05:21:59.196Z,3.58
2023-03-17T05:24:26.272Z,3.63
2023-03-17T05:26:53.299Z,2.88
2023-03-17T05:29:20.253Z,3.40
2023-03-17T05:31:47.584Z,3.15
2023-03-17T05:34:15.424Z,3.10
2023-03-17T05:36:42.459Z,2.78
2023-03-17T05:39:09.473Z,2.60
2023-03-17T05:41:36.450Z,2.83
2023-03-17T05:44:03.703Z,2.40
2023-03-17T05:46:30.912Z,3.13
2023-03-17T05:48:57.943Z,4.25
2023-03-17T05:51:24.874Z,4.47
2023-03-17T05:53:51.864Z,5.10
2023-03-17T05:56:18.872Z,4.30
2023-03-17T05:58:45.907Z,4.75
2023-03-17T06:01:14.343Z,3.78
2023-03-17T06:03:42.175Z,5.15
2023-03-17T06:06:09.379Z,3.55
2023-03-17T06:08:36.425Z,3.78
2023-03-17T06:11:03.386Z,3.65
2023-03-17T06:13:31.225Z,4.05
2023-03-17T06:15:58.331Z,4.80
2023-03-17T06:18:25.406Z,4.38
2023-03-17T06:20:52.435Z,3.75
2023-03-17T06:23:19.435Z,3.40
2023-03-17T06:25:47.760Z,3.53
2023-03-17T06:28:14.786Z,3.58
2023-03-17T06:30:41.766Z,3.45
2023-03-17T06:33:09.003Z,3.60
2023-03-17T06:35:36.603Z,3.38
2023-03-17T06:38:03.740Z,3.35
2023-03-17T06:40:32.230Z,2.95
2023-03-17T06:42:59.566Z,3.10
2023-03-17T06:45:26.956Z,3.00
2023-03-17T06:47:53.954Z,2.80
2023-03-17T06:50:21.470Z,2.58
2023-03-17T06:52:49.625Z,2.30
2023-03-17T06:55:17.658Z,2.45
2023-03-17T06:57:44.693Z,2.45
2023-03-17T07:00:14.300Z,2.10
2023-03-17T07:02:41.632Z,2.55
2023-03-17T07:05:09.042Z,3.30
2023-03-17T07:07:35.968Z,2.80
2023-03-17T07:10:04.079Z,3.22
2023-03-17T07:12:31.356Z,2.75
2023-03-17T07:14:58.438Z,2.97
2023-03-17T07:17:25.615Z,2.95
2023-03-17T07:19:52.603Z,3.10
2023-03-17T07:22:19.776Z,3.60
2023-03-17T07:24:49.215Z,2.85
2023-03-17T07:27:16.878Z,3.67
2023-03-17T07:29:44.420Z,3.13
2023-03-17T07:32:11.717Z,2.95
2023-03-17T07:34:38.767Z,3.67
2023-03-17T07:37:07.055Z,3.08
2023-03-17T07:39:34.266Z,2.75
2023-03-17T07:42:01.245Z,2.80
2023-03-17T07:44:28.963Z,2.63
2023-03-17T07:46:56.721Z,2.20
2023-03-17T07:49:40.132Z,2.60
2023-03-17T07:52:08.979Z,2.40
2023-03-17T07:54:37.114Z,2.35
2023-03-17T07:57:05.462Z,2.67
2023-03-17T07:59:33.129Z,2.92
2023-03-17T08:02:01.653Z,2.80
2023-03-17T08:04:29.104Z,3.15
2023-03-17T08:06:57.323Z,2.95
2023-03-17T08:09:24.434Z,2.70
2023-03-17T08:11:51.733Z,2.80
2023-03-17T08:14:18.991Z,3.55
2023-03-17T08:16:46.139Z,2.97
2023-03-17T08:19:13.184Z,2.85
2023-03-17T08:21:40.209Z,2.83
2023-03-17T08:24:07.359Z,2.50
2023-03-17T08:26:34.661Z,2.35
2023-03-17T08:29:01.808Z,3.75
2023-03-17T08:31:28.913Z,4.00
2023-03-17T08:33:58.680Z,3.38
2023-03-17T08:36:26.263Z,2.97
2023-03-17T08:38:53.304Z,3.85
2023-03-17T08:41:23.842Z,4.95
2023-03-17T08:43:51.840Z,4.13
2023-03-17T08:46:26.203Z,2.90
2023-03-17T08:48:56.488Z,2.92
2023-03-17T08:51:26.773Z,3.35
2023-03-17T08:53:55.111Z,2.58
2023-03-17T08:56:22.933Z,2.90
2023-03-17T08:58:51.806Z,1.90
2023-03-17T09:01:21.000Z,2.15
2023-03-17T09:03:49.655Z,2.20
2023-03-17T09:06:16.807Z,2.00
2023-03-17T09:08:47.414Z,2.10
2023-03-17T09:11:16.829Z,2.45
2023-03-17T09:13:44.968Z,3.85
2023-03-17T09:16:13.282Z,3.35
2023-03-17T09:18:41.285Z,3.20
2023-03-17T09:21:09.945Z,6.15
2023-03-17T09:23:36.870Z,4.65
2023-03-17T09:26:04.131Z,2.55
2023-03-17T09:28:31.178Z,2.22
2023-03-17T09:31:03.746Z,2.28
2023-03-17T09:33:31.091Z,2.75
2023-03-17T09:35:58.455Z,1.95
2023-03-17T09:38:27.834Z,2.00
2023-03-17T09:41:03.459Z,2.17
2023-03-17T09:44:02.971Z,2.40
2023-03-17T09:46:42.545Z,3.30
2023-03-17T09:49:14.820Z,3.13
2023-03-17T09:51:45.191Z,2.13
2023-03-17T09:54:15.616Z,2.10
2023-03-17T09:56:48.388Z,1.80
2023-03-17T09:59:34.977Z,2.35
2023-03-17T10:02:02.431Z,2.20
2023-03-17T10:04:29.453Z,2.33
2023-03-17T10:07:04.532Z,2.30
2023-03-17T10:09:42.104Z,3.50
2023-03-17T10:12:09.952Z,2.95
2023-03-17T10:15:03.401Z,2.50
2023-03-17T10:17:35.299Z,1.90
2023-03-17T10:20:14.709Z,2.15
2023-03-17T10:22:53.754Z,2.30
2023-03-17T10:25:23.756Z,1.95
2023-03-17T10:28:00.041Z,2.30
2023-03-17T10:30:27.605Z,2.50
2023-03-17T10:32:59.061Z,1.90
2023-03-17T10:35:26.518Z,2.38
2023-03-17T10:38:07.982Z,1.90
2023-03-17T10:40:41.742Z,1.85
2023-03-17T10:43:19.091Z,2.70
2023-03-17T10:45:58.165Z,3.42
2023-03-17T10:48:25.152Z,2.30
2023-03-17T10:50:54.273Z,2.42
2023-03-17T10:53:28.577Z,2.55
2023-03-17T10:56:08.867Z,2.30
2023-03-17T10:58:40.059Z,2.10
2023-03-17T11:01:35.985Z,2.25
2023-03-17T11:04:04.026Z,2.30
2023-03-17T11:06:37.014Z,2.63
2023-03-17T11:09:10.058Z,3.03
2023-03-17T11:11:46.871Z,2.30
2023-03-17T11:14:16.378Z,2.17
2023-03-17T11:16:59.193Z,2.70
2023-03-17T11:20:08.009Z,2.80
2023-03-17T11:22:35.138Z,2.50
2023-03-17T11:25:19.893Z,2.70
2023-03-17T11:28:37.914Z,2.60
2023-03-17T11:31:20.510Z,2.40
2023-03-17T11:34:00.164Z,2.40
2023-03-17T11:36:41.251Z,2.30
2023-03-17T11:39:20.866Z,2.63
2023-03-17T11:41:57.202Z,2.70
2023-03-17T11:44:46.411Z,2.70
2023-03-17T11:47:39.578Z,2.30
2023-03-17T11:50:24.986Z,2.50
2023-03-17T11:53:13.774Z,1.95
2023-03-17T11:55:54.525Z,1.90
2023-03-17T11:58:37.187Z,2.17
2023-03-17T12:01:09.168Z,3.00
2023-03-17T12:03:43.055Z,2.67
2023-03-17T12:06:21.449Z,3.17
2023-03-17T12:08:59.812Z,2.83
2023-03-17T12:11:31.926Z,3.03
2023-03-17T12:14:27.155Z,2.45
2023-03-17T12:17:09.891Z,2.60
2023-03-17T12:19:42.744Z,2.58
2023-03-17T12:22:22.857Z,2.63
2023-03-17T12:25:13.410Z,2.90
2023-03-17T12:27:51.306Z,2.30
2023-03-17T12:30:29.329Z,2.20
2023-03-17T12:33:19.294Z,2.03
2023-03-17T12:35:46.427Z,2.38
2023-03-17T12:38:23.107Z,1.75
2023-03-17T12:41:28.847Z,3.25
2023-03-17T12:44:01.374Z,2.50
2023-03-17T12:47:17.392Z,2.58
2023-03-17T12:50:05.834Z,3.35
2023-03-17T12:53:02.079Z,2.92
2023-03-17T12:55:32.723Z,2.70
2023-03-17T12:58:08.164Z,2.03
2023-03-17T13:00:57.701Z,3.00
2023-03-17T13:03:25.000Z,2.75
2023-03-17T13:06:03.970Z,3.08
2023-03-17T13:08:34.140Z,2.25
2023-03-17T13:11:26.398Z,2.10
2023-03-17T13:14:08.740Z,3.30
2023-03-17T13:16:44.916Z,2.95
2023-03-17T13:19:31.250Z,3.67
2023-03-17T13:22:20.641Z,3.22
2023-03-17T13:24:52.842Z,2.47
2023-03-17T13:27:32.057Z,2.30
2023-03-17T13:30:00.631Z,2.50
2023-03-17T13:32:27.624Z,3.03
2023-03-17T13:35:16.719Z,2.80
2023-03-17T13:38:03.879Z,2.20
2023-03-17T13:40:56.816Z,2.70
2023-03-17T13:43:37.693Z,2.88
2023-03-17T13:46:22.429Z,2.30
2023-03-17T13:48:50.277Z,2.47
2023-03-17T13:51:27.454Z,2.45
2023-03-17T13:56:46.003Z,2.03
2023-03-17T13:59:19.782Z,2.35
2023-03-17T14:01:59.971Z,2.13
2023-03-17T14:04:30.964Z,3.13
2023-03-17T14:07:05.494Z,3.65
2023-03-17T14:09:41.586Z,3.90
2023-03-17T14:12:26.070Z,2.83
2023-03-17T14:15:07.540Z,2.67
2023-03-17T14:17:46.684Z,2.40
2023-03-17T14:20:13.672Z,3.05
2023-03-17T14:22:45.452Z,3.40
2023-03-17T14:25:30.957Z,3.17
2023-03-17T14:27:59.088Z,3.85
2023-03-17T14:30:31.856Z,3.20
2023-03-17T14:33:07.564Z,3.40
2023-03-17T14:35:39.258Z,4.20
2023-03-17T14:38:23.396Z,3.75
2023-03-17T14:40:51.859Z,3.72
2023-03-17T14:43:18.912Z,3.53
2023-03-17T14:45:46.330Z,3.72
2023-03-17T14:48:15.855Z,3.40
2023-03-17T14:50:55.670Z,3.40
2023-03-17T14:53:24.331Z,3.38
2023-03-17T14:55:52.984Z,2.60
2023-03-17T14:58:39.762Z,2.95
2023-03-17T15:01:12.397Z,3.13
2023-03-17T15:03:42.356Z,3.08
2023-03-17T15:06:27.376Z,3.05
2023-03-17T15:08:57.370Z,2.83
2023-03-17T15:11:28.290Z,4.13
2023-03-17T15:14:13.033Z,3.65
2023-03-17T15:16:44.161Z,3.85
2023-03-17T15:19:38.965Z,3.72
2023-03-17T15:22:21.404Z,2.33
2023-03-17T15:25:02.642Z,3.08
2023-03-17T15:27:32.042Z,3.97
2023-03-17T15:29:59.417Z,3.88
2023-03-17T15:32:27.600Z,3.60
2023-03-17T15:34:57.224Z,3.97
2023-03-17T15:37:26.060Z,4.38
2023-03-17T15:39:55.228Z,4.82
2023-03-17T15:42:25.476Z,5.10
2023-03-17T15:44:53.550Z,4.22
2023-03-17T15:47:23.062Z,5.07
2023-03-17T15:49:51.052Z,4.32
2023-03-17T15:52:25.269Z,4.65
2023-03-17T15:54:53.924Z,6.18
2023-03-17T15:57:21.159Z,4.97
2023-03-17T15:59:48.141Z,4.20
2023-03-17T16:02:35.660Z,4.32
2023-03-17T16:05:15.041Z,4.32
2023-03-17T16:07:42.034Z,4.00
2023-03-17T16:10:17.457Z,4.65
2023-03-17T16:12:44.800Z,4.38
2023-03-17T16:15:22.924Z,4.25
2023-03-17T16:17:53.966Z,4.80
2023-03-17T16:20:25.224Z,4.35
2023-03-17T16:22:54.557Z,4.38
2023-03-17T16:25:25.083Z,4.45
2023-03-17T16:27:53.473Z,4.18
2023-03-17T16:30:24.347Z,3.70
2023-03-17T16:32:52.324Z,3.85
2023-03-17T16:35:22.202Z,4.03
2023-03-17T16:37:52.516Z,5.32
2023-03-17T16:40:29.074Z,5.10
2023-03-17T16:42:56.173Z,5.00
2023-03-17T16:45:34.155Z,5.03
2023-03-17T16:48:03.596Z,5.63
2023-03-17T16:50:34.853Z,6.18
2023-03-17T16:53:01.837Z,5.13
2023-03-17T16:55:29.436Z,5.03
2023-03-17T16:58:00.880Z,4.85
2023-03-17T17:00:30.589Z,5.18
2023-03-17T17:02:58.453Z,4.20
2023-03-17T17:05:31.305Z,5.45
2023-03-17T17:07:59.135Z,5.10
2023-03-17T17:10:29.268Z,4.90
2023-03-17T17:12:56.485Z,4.80
2023-03-17T17:15:23.936Z,4.70
2023-03-17T17:17:54.603Z,4.78
2023-03-17T17:20:31.246Z,4.78
2023-03-17T17:23:00.671Z,4.93
2023-03-17T17:25:28.652Z,4.53
2023-03-17T17:27:56.528Z,4.70
2023-03-17T17:30:25.870Z,5.22
2023-03-17T17:32:52.983Z,5.20
2023-03-17T17:35:20.225Z,5.38
2023-03-17T17:37:47.572Z,4.78
2023-03-17T17:40:17.416Z,5.05
2023-03-17T17:42:46.583Z,5.00
2023-03-17T17:45:15.445Z,5.15
2023-03-17T17:47:43.070Z,4.90
2023-03-17T17:50:16.729Z,5.05
2023-03-17T17:52:43.711Z,4.15
2023-03-17T17:55:10.848Z,3.88
2023-03-17T17:57:39.021Z,4.38
2023-03-17T18:00:07.100Z,4.10
2023-03-17T18:02:36.352Z,4.65
2023-03-17T18:05:06.018Z,4.25
2023-03-17T18:07:33.089Z,6.10
2023-03-17T18:10:00.094Z,6.47
2023-03-17T18:12:28.030Z,6.45
2023-03-17T18:14:55.003Z,7.03
2023-03-17T18:17:22.222Z,5.93
2023-03-17T18:19:50.558Z,7.38
2023-03-17T18:22:17.525Z,6.30
2023-03-17T18:24:44.527Z,6.78
2023-03-17T18:27:11.973Z,6.38
2023-03-17T18:29:40.012Z,6.13
2023-03-17T18:32:08.088Z,5.10
2023-03-17T18:34:43.517Z,5.78
2023-03-17T18:37:15.870Z,6.10
2023-03-17T18:39:43.367Z,6.05
2023-03-17T18:42:11.387Z,6.80
2023-03-17T18:44:40.089Z,7.18
2023-03-17T18:47:07.664Z,7.38
2023-03-17T18:49:34.863Z,8.57
2023-03-17T18:52:01.969Z,8.05
2023-03-17T18:54:29.247Z,9.95
2023-03-17T18:56:56.623Z,9.02
2023-03-17T18:59:24.323Z,10.02
2023-03-17T19:01:51.570Z,8.80
2023-03-17T19:04:18.559Z,10.77
2023-03-17T19:06:45.618Z,9.07
2023-03-17T19:09:13.066Z,8.45
2023-03-17T19:11:40.667Z,8.68
2023-03-17T19:14:08.894Z,7.13
2023-03-17T19:16:36.151Z,7.78
2023-03-17T19:19:03.361Z,7.38
2023-03-17T19:21:31.149Z,7.15
2023-03-17T19:24:00.707Z,7.43
2023-03-17T19:26:28.648Z,5.65
2023-03-17T19:28:56.840Z,8.55
2023-03-17T19:31:24.913Z,7.68
2023-03-17T19:33:52.097Z,6.03
2023-03-17T19:36:19.471Z,6.22
2023-03-17T19:38:46.453Z,6.50
2023-03-17T19:41:15.561Z,6.30
2023-03-17T19:43:42.668Z,6.88
2023-03-17T19:46:11.575Z,6.57
2023-03-17T19:48:39.565Z,6.45
2023-03-17T19:51:06.959Z,6.70
2023-03-17T19:53:34.315Z,7.38
2023-03-17T19:56:02.762Z,6.93
2023-03-17T19:58:29.930Z,8.27
2023-03-17T20:00:57.138Z,7.57
2023-03-17T20:03:26.157Z,7.05
2023-03-17T20:05:54.130Z,7.35
2023-03-17T20:08:22.614Z,6.90
2023-03-17T20:10:54.200Z,7.35
2023-03-17T20:13:22.061Z,7.38
2023-03-17T20:15:51.487Z,7.22
2023-03-17T20:18:19.117Z,7.32
2023-03-17T20:20:52.394Z,6.93
2023-03-17T20:23:19.516Z,6.68
2023-03-17T20:25:46.825Z,7.03
2023-03-17T20:28:14.231Z,6.72
2023-03-17T20:30:43.596Z,7.57
2023-03-17T20:33:12.629Z,7.50
2023-03-17T20:35:42.127Z,6.85
2023-03-17T20:38:11.119Z,6.93
2023-03-17T20:40:38.605Z,6.78
2023-03-17T20:43:05.782Z,7.00
2023-03-17T20:45:33.203Z,7.05
2023-03-17T20:48:00.948Z,7.15
2023-03-17T20:50:28.017Z,7.07
2023-03-17T20:52:55.531Z,6.95
2023-03-17T20:55:22.566Z,6.15
2023-03-17T20:57:51.032Z,6.70
2023-03-17T21:00:20.265Z,6.78
2023-03-17T21:02:50.396Z,5.78
2023-03-17T21:05:21.692Z,5.67
2023-03-17T21:07:49.343Z,6.10
2023-03-17T21:10:17.522Z,4.78
2023-03-17T21:12:45.871Z,5.15
2023-03-17T21:15:14.130Z,6.07
2023-03-17T21:17:42.447Z,5.70
2023-03-17T21:20:12.248Z,6.78
2023-03-17T21:22:40.233Z,6.20
2023-03-17T21:25:09.911Z,5.95
2023-03-17T21:27:40.924Z,5.03
2023-03-17T21:30:12.170Z,5.03
2023-03-17T21:32:40.525Z,5.10
2023-03-17T21:35:08.431Z,4.85
2023-03-17T21:37:35.693Z,4.97
2023-03-17T21:40:04.708Z,4.35
2023-03-17T21:42:31.685Z,4.57
2023-03-17T21:44:59.038Z,4.47
2023-03-17T21:47:26.304Z,4.38
2023-03-17T21:49:53.299Z,5.20
2023-03-17T21:52:21.246Z,5.00
2023-03-17T21:54:48.999Z,4.53
2023-03-17T21:57:16.741Z,4.78
2023-03-17T21:59:43.885Z,4.50
2023-03-17T22:02:12.681Z,4.45
2023-03-17T22:04:41.741Z,4.47
2023-03-17T22:07:08.745Z,4.47
2023-03-17T22:09:36.162Z,4.88
2023-03-17T22:12:04.441Z,5.55
2023-03-17T22:14:31.515Z,6.07
2023-03-17T22:16:58.681Z,6.45
2023-03-17T22:19:25.762Z,6.60
2023-03-17T22:21:53.198Z,6.57
2023-03-17T22:24:20.583Z,5.27
2023-03-17T22:26:49.067Z,5.73
2023-03-17T22:29:16.246Z,5.43
2023-03-17T22:31:43.368Z,5.82
2023-03-17T22:34:10.429Z,6.15
2023-03-17T22:36:37.499Z,5.25
2023-03-17T22:39:05.531Z,4.93
2023-03-17T22:41:32.575Z,5.10
2023-03-17T22:43:59.633Z,5.07
2023-03-17T22:46:27.351Z,4.40
2023-03-17T22:48:54.445Z,4.47
2023-03-17T22:51:24.612Z,4.40
2023-03-17T22:53:51.948Z,5.05
2023-03-17T22:56:19.814Z,4.80
2023-03-17T22:58:47.627Z,4.67
2023-03-17T23:01:17.136Z,5.20
2023-03-17T23:03:45.128Z,4.37
2023-03-17T23:06:14.635Z,4.70
2023-03-17T23:08:43.177Z,4.33
2023-03-17T23:11:21.267Z,5.23
2023-03-17T23:13:48.946Z,4.33
2023-03-17T23:16:16.538Z,4.63
2023-03-17T23:18:46.780Z,4.67
2023-03-17T23:21:29.598Z,4.90
2023-03-17T23:23:56.908Z,5.53
2023-03-17T23:26:24.145Z,4.67
2023-03-17T23:28:51.982Z,4.83
2023-03-17T23:31:20.627Z,4.00
2023-03-17T23:33:48.471Z,4.03
2023-03-17T23:36:17.306Z,4.70
2023-03-17T23:38:45.698Z,4.73
2023-03-17T23:41:13.413Z,4.43
2023-03-17T23:43:40.784Z,3.53
2023-03-17T23:46:08.549Z,3.67
2023-03-17T23:48:36.008Z,3.83
2023-03-17T23:51:03.419Z,3.93
2023-03-17T23:53:30.437Z,3.43
2023-03-17T23:55:57.943Z,3.47
2023-03-17T23:58:25.049Z,3.70
